Time;durP1;ratioP1;P1;durP2;ratioP2;P2;SDS_P1;SDS_P2;PMS_P1;PMS_P2;Temp;Humidity;BMP_temperature;BMP_pressure;BME280_temperature;BME280_humidity;BME280_pressure;Samples;Min_cycle;Max_cycle;Signal;HPM_P1;HPM_P2
2021/08/21 00:00:30;;;;;;;;;;;16.50;99.90;;;15.19;93.53;95910.34;10503615;28;2162;-79
2021/08/21 00:05:33;;;;;;;;;;;16.40;99.90;;;15.27;94.42;95907.75;10524233;28;2366;-82
2021/08/21 00:10:35;;;;;;;;;;;16.30;99.90;;;15.33;93.65;95911.13;10536838;28;2295;-80
2021/08/21 00:15:38;;;;;;;;;;;16.40;99.90;;;15.26;93.33;95908.81;10532521;28;1501;-78
2021/08/21 00:20:41;;;;;;;;;;;16.40;99.90;;;15.23;94.77;95912.16;10537479;28;1899;-79
2021/08/21 00:25:44;;;;;;;;;;;16.40;99.90;;;15.30;94.71;95907.13;10512217;28;1239;-79
2021/08/21 00:30:46;;;;;;;;;;;16.40;99.90;;;15.30;94.35;95895.50;10499757;28;2466;-78
2021/08/21 00:35:49;;;;;;;;;;;16.40;99.90;;;15.30;94.06;95903.63;10520836;28;2367;-80
2021/08/21 00:40:52;;;;;;;;;;;16.40;99.90;;;15.22;94.86;95898.91;10489673;28;2222;-80
2021/08/21 00:45:55;;;;;;;;;;;16.30;99.90;;;15.18;94.03;95897.91;10497508;28;2312;-80
2021/08/21 00:51:01;;;;;;;;;;;16.30;99.90;;;15.10;94.90;95896.69;10508527;28;2201;-81
2021/08/21 00:56:03;;;;;;;;;;;16.20;99.90;;;15.00;95.28;95894.97;10508857;28;2403;-79
2021/08/21 01:01:06;;;;;;;;;;;16.10;99.90;;;15.00;96.74;95894.97;10503177;28;2216;-80
2021/08/21 01:06:09;;;;;;;;;;;16.10;99.90;;;15.04;97.07;95887.06;10515752;28;2292;-80
2021/08/21 01:11:12;;;;;;;;;;;16.10;99.90;;;15.07;97.35;95887.25;10519229;28;1949;-79
2021/08/21 01:16:15;;;;;;;;;;;16.20;99.90;;;15.09;97.53;95886.97;10518914;28;2292;-79
2021/08/21 01:21:21;;;;;;;;;;;16.20;99.90;;;15.06;96.62;95884.84;10500769;28;2278;-80
2021/08/21 01:26:25;;;;;;;;;;;16.20;99.90;;;14.99;96.14;95892.56;10487656;28;2686;-80
2021/08/21 01:31:28;;;;;;;;;;;16.10;99.90;;;14.92;97.09;95884.81;10509977;28;2185;-79
2021/08/21 01:36:30;;;;;;;;;;;16.10;99.90;;;14.95;97.16;95891.53;10499240;28;2440;-79
2021/08/21 01:41:33;;;;;;;;;;;16.10;99.90;;;14.89;97.50;95893.56;10516923;28;2375;-81
2021/08/21 01:46:36;;;;;;;;;;;16.00;99.90;;;14.90;99.02;95887.03;10514786;28;2258;-79
2021/08/21 01:51:39;;;;;;;;;;;16.00;99.90;;;14.87;99.58;95883.00;10504095;28;2269;-80
2021/08/21 01:56:41;;;;;;;;;;;16.00;99.90;;;14.87;99.79;95890.31;10513771;28;2415;-79
2021/08/21 02:01:44;;;;;;;;;;;16.00;99.90;;;14.82;99.37;95882.28;10519466;28;1891;-79
2021/08/21 02:06:47;;;;;;;;;;;16.00;99.90;;;14.71;100.00;95883.59;10521743;28;2229;-80
2021/08/21 02:11:50;;;;;;;;;;;15.90;99.90;;;14.58;100.00;95877.03;10496485;28;2311;-82
2021/08/21 02:16:52;;;;;;;;;;;15.80;99.90;;;14.49;100.00;95881.50;10520564;28;2262;-78
2021/08/21 02:21:56;;;;;;;;;;;15.70;99.90;;;14.46;100.00;95876.66;10501665;28;2470;-79
2021/08/21 02:26:59;;;;;;;;;;;15.60;99.90;;;14.46;100.00;95882.06;10494529;28;2395;-79
2021/08/21 02:32:02;;;;;;;;;;;15.60;99.90;;;14.38;100.00;95885.44;10506059;28;2431;-80
2021/08/21 02:37:04;;;;;;;;;;;15.50;99.90;;;14.39;100.00;95893.28;10512158;28;2131;-81
2021/08/21 02:42:07;;;;;;;;;;;15.50;99.90;;;14.35;100.00;95892.25;10538211;28;2439;-82
2021/08/21 02:47:10;;;;;;;;;;;15.50;99.90;;;14.26;100.00;95885.91;10545155;28;2510;-80
2021/08/21 02:52:12;;;;;;;;;;;15.40;99.90;;;14.46;100.00;95885.63;10536846;28;2595;-82
2021/08/21 02:57:15;;;;;;;;;;;15.40;99.90;;;14.37;100.00;95883.84;10541414;28;2547;-83
2021/08/21 03:02:18;;;;;;;;;;;15.50;99.90;;;14.28;100.00;95881.81;10524563;28;2554;-84
2021/08/21 03:07:21;;;;;;;;;;;15.40;99.90;;;14.37;100.00;95881.13;10529938;28;2467;-80
2021/08/21 03:12:23;;;;;;;;;;;15.40;99.90;;;14.22;100.00;95882.19;10510712;28;1640;-82
2021/08/21 03:17:26;;;;;;;;;;;15.40;99.90;;;14.15;100.00;95895.25;10530335;28;1470;-84
2021/08/21 03:22:29;;;;;;;;;;;15.30;99.90;;;14.05;100.00;95899.72;10546722;28;2459;-81
2021/08/21 03:27:32;;;;;;;;;;;15.20;99.90;;;14.03;100.00;95895.69;10546704;28;1223;-81
2021/08/21 03:32:34;;;;;;;;;;;15.10;99.90;;;14.19;100.00;95889.00;10533623;28;2697;-80
2021/08/21 03:37:37;;;;;;;;;;;15.20;99.90;;;14.25;100.00;95895.09;10519345;28;2597;-79
2021/08/21 03:42:40;;;;;;;;;;;15.30;99.90;;;14.37;100.00;95890.03;10508076;28;2015;-79
2021/08/21 03:47:43;;;;;;;;;;;15.30;99.90;;;14.36;100.00;95888.44;10504775;28;2530;-80
2021/08/21 03:52:45;;;;;;;;;;;15.40;99.90;;;14.24;100.00;95899.69;10509272;28;2492;-82
2021/08/21 03:57:48;;;;;;;;;;;15.30;99.90;;;14.07;100.00;95900.25;10540401;28;1882;-79
2021/08/21 04:02:51;;;;;;;;;;;15.20;99.90;;;14.04;100.00;95898.09;10523581;28;2013;-79
2021/08/21 04:07:54;;;;;;;;;;;15.10;99.90;;;14.15;100.00;95892.56;10511244;28;1740;-80
2021/08/21 04:12:58;;;;;;;;;;;15.20;99.90;;;14.21;100.00;95896.81;10538603;28;2522;-81
2021/08/21 04:18:01;;;;;;;;;;;15.20;99.90;;;14.36;100.00;95891.16;10527254;28;1910;-80
2021/08/21 04:23:03;;;;;;;;;;;15.30;99.90;;;14.54;100.00;95884.94;10536788;28;2416;-81
2021/08/21 04:28:06;;;;;;;;;;;15.40;99.90;;;14.43;100.00;95894.28;10517474;28;2139;-82
2021/08/21 04:33:09;;;;;;;;;;;15.50;99.90;;;14.31;100.00;95889.34;10541673;28;2451;-80
2021/08/21 04:38:12;;;;;;;;;;;15.40;99.90;;;14.28;100.00;95903.44;10526357;28;2164;-80
2021/08/21 04:43:15;;;;;;;;;;;15.30;99.90;;;14.44;100.00;95900.47;10519518;28;1283;-79
2021/08/21 04:48:17;;;;;;;;;;;15.30;99.90;;;14.57;100.00;95911.41;10524975;28;2468;-80
2021/08/21 04:53:21;;;;;;;;;;;15.40;99.90;;;14.84;100.00;95915.28;10521578;28;2523;-80
2021/08/21 04:58:24;;;;;;;;;;;15.60;99.90;;;15.16;99.94;95919.06;10508546;28;2305;-80
2021/08/21 05:03:27;;;;;;;;;;;15.80;99.90;;;15.38;98.14;95928.09;10496286;28;2138;-78
2021/08/21 05:08:29;;;;;;;;;;;16.10;99.90;;;15.68;96.16;95931.34;10536624;28;1977;-79
2021/08/21 05:13:32;;;;;;;;;;;16.40;99.90;;;15.71;95.96;95921.81;10529853;28;1850;-79
2021/08/21 05:18:38;;;;;;;;;;;16.60;99.90;;;16.15;93.08;95931.97;10521019;28;2206;-79
2021/08/21 05:23:40;;;;;;;;;;;16.80;99.90;;;16.49;91.10;95932.28;10538597;28;2541;-81
2021/08/21 05:28:43;;;;;;;;;;;17.10;99.90;;;16.84;87.76;95939.91;10529715;28;2089;-82
2021/08/21 05:33:46;;;;;;;;;;;17.60;99.90;;;17.20;85.84;95937.91;10518323;28;2092;-78
2021/08/21 05:38:48;;;;;;;;;;;17.80;99.90;;;17.26;85.37;95933.94;10515663;28;2519;-81
2021/08/21 05:43:53;;;;;;;;;;;18.00;99.90;;;17.69;82.77;95949.66;10500203;28;2430;-79
2021/08/21 05:48:56;;;;;;;;;;;18.10;99.90;;;17.82;81.97;95951.47;10529189;28;2151;-79
2021/08/21 05:53:58;;;;;;;;;;;18.20;99.90;;;18.12;80.42;95948.19;10514645;28;2808;-81
2021/08/21 05:59:01;;;;;;;;;;;18.50;99.90;;;18.27;79.95;95945.81;10531570;28;2292;-84
2021/08/21 06:04:04;;;;;;;;;;;18.60;99.90;;;18.37;78.82;95945.47;10541677;28;2364;-82
2021/08/21 06:09:07;;;;;;;;;;;18.90;99.90;;;18.63;77.80;95941.97;10510443;28;2654;-82
2021/08/21 06:14:09;;;;;;;;;;;19.10;99.90;;;19.31;74.33;95944.97;10529115;28;2108;-82
2021/08/21 06:19:12;;;;;;;;;;;19.30;99.90;;;19.40;73.04;95948.44;10524961;28;2472;-85
2021/08/21 06:24:15;;;;;;;;;;;19.60;99.90;;;19.59;72.13;95950.81;10530553;28;2125;-84
2021/08/21 06:29:17;;;;;;;;;;;19.90;99.90;;;19.71;70.26;95948.19;10534798;28;2251;-82
2021/08/21 06:34:20;;;;;;;;;;;20.00;99.90;;;19.88;69.96;95953.59;10531471;28;2709;-81
2021/08/21 06:39:23;;;;;;;;;;;20.20;99.90;;;20.25;67.74;95956.59;10509950;28;1969;-84
2021/08/21 06:44:26;;;;;;;;;;;20.50;99.90;;;20.71;65.75;95963.03;10525561;28;2244;-83
2021/08/21 06:49:29;;;;;;;;;;;20.80;99.90;;;20.91;64.73;95951.28;10526657;28;2228;-83
2021/08/21 06:54:32;;;;;;;;;;;21.00;99.90;;;21.13;63.36;95949.34;10541001;28;2532;-81
2021/08/21 06:59:34;;;;;;;;;;;21.40;99.90;;;21.08;63.67;95950.34;10516931;28;2235;-82
2021/08/21 07:04:37;;;;;;;;;;;21.50;99.90;;;21.53;61.43;95955.03;10539994;28;1901;-82
2021/08/21 07:09:40;;;;;;;;;;;21.80;99.90;;;21.38;60.72;95948.31;10524581;28;1667;-80
2021/08/21 07:14:42;;;;;;;;;;;21.80;99.90;;;21.47;61.06;95959.94;10526456;28;2227;-79
2021/08/21 07:19:46;;;;;;;;;;;21.80;99.90;;;21.55;60.92;95952.75;10519720;28;2021;-83
2021/08/21 07:24:48;;;;;;;;;;;21.90;99.90;;;21.59;60.07;95949.00;10532960;28;1226;-79
2021/08/21 07:29:51;;;;;;;;;;;22.00;99.90;;;22.31;59.26;95951.31;10541478;28;2369;-80
2021/08/21 07:34:54;;;;;;;;;;;22.30;99.90;;;22.41;58.40;95950.88;10540596;28;1216;-80
2021/08/21 07:39:57;;;;;;;;;;;22.60;99.90;;;22.56;57.09;95947.41;10526079;28;1930;-79
2021/08/21 07:45:00;;;;;;;;;;;22.80;99.90;;;23.05;54.87;95952.75;10526452;28;2904;-78
2021/08/21 07:50:02;;;;;;;;;;;23.10;99.90;;;22.86;56.12;95956.13;10529844;28;1579;-79
2021/08/21 07:55:05;;;;;;;;;;;23.20;99.90;;;23.17;55.32;95949.97;10498719;28;2395;-80
2021/08/21 08:00:08;;;;;;;;;;;23.40;99.90;;;23.24;54.49;95948.56;10526682;28;2239;-81
2021/08/21 08:05:11;;;;;;;;;;;23.40;99.90;;;23.07;55.38;95955.13;10525601;28;2053;-79
2021/08/21 08:10:13;;;;;;;;;;;23.70;99.90;;;22.78;57.74;95948.03;10489267;28;2414;-81
2021/08/21 08:15:16;;;;;;;;;;;23.50;99.90;;;23.24;56.08;95960.31;10524077;28;2263;-81
2021/08/21 08:20:19;;;;;;;;;;;23.60;99.90;;;23.68;54.33;95955.63;10511076;28;2275;-80
2021/08/21 08:25:22;;;;;;;;;;;24.00;99.90;;;23.85;52.35;95956.44;10512021;28;2354;-80
2021/08/21 08:30:24;;;;;;;;;;;24.30;99.90;;;24.01;52.46;95959.97;10515978;28;2317;-78
2021/08/21 08:35:27;;;;;;;;;;;24.50;99.90;;;24.22;50.72;95965.16;10487117;28;2415;-80
2021/08/21 08:40:30;;;;;;;;;;;24.60;99.90;;;24.34;50.26;95965.09;10489949;28;2278;-80
2021/08/21 08:45:32;;;;;;;;;;;24.80;99.90;;;24.53;50.24;95969.84;10507607;28;2337;-78
2021/08/21 08:50:35;;;;;;;;;;;24.90;99.90;;;24.87;49.78;95970.97;10513193;28;2277;-80
2021/08/21 08:55:39;;;;;;;;;;;25.20;99.90;;;24.45;50.45;95959.84;10518840;28;2308;-80
2021/08/21 09:00:42;;;;;;;;;;;25.30;99.90;;;24.58;50.14;95964.06;10513783;28;2227;-79
2021/08/21 09:05:45;;;;;;;;;;;25.20;99.90;;;24.52;51.51;95971.78;10512254;28;1953;-81
2021/08/21 09:10:48;;;;;;;;;;;25.10;99.90;;;24.74;50.24;95964.00;10511717;28;2255;-81
2021/08/21 09:15:52;;;;;;;;;;;25.20;99.90;;;24.49;50.45;95964.28;10499043;28;2280;-80
2021/08/21 09:20:55;;;;;;;;;;;25.20;99.90;;;24.60;49.57;95961.75;10505534;28;2348;-81
2021/08/21 09:25:57;;;;;;;;;;;25.30;99.90;;;24.69;48.53;95956.88;10512593;28;2325;-80
2021/08/21 09:31:01;;;;;;;;;;;25.50;99.90;;;24.76;49.34;95962.50;10511492;28;2321;-82
2021/08/21 09:36:03;;;;;;;;;;;25.50;99.90;;;25.52;47.92;95959.31;10511302;28;2299;-82
2021/08/21 09:41:06;;;;;;;;;;;25.90;99.90;;;25.56;47.98;95960.16;10514375;28;2234;-82
2021/08/21 09:46:10;;;;;;;;;;;26.10;99.90;;;24.96;48.19;95959.78;10509287;28;2267;-78
2021/08/21 09:51:13;;;;;;;;;;;26.00;99.90;;;25.41;46.94;95952.81;10511800;28;2284;-81
2021/08/21 09:56:15;;;;;;;;;;;26.00;99.90;;;25.04;47.05;95953.25;10502118;28;2388;-78
2021/08/21 10:01:18;;;;;;;;;;;25.90;99.90;;;25.43;47.01;95950.47;10492550;28;2449;-78
2021/08/21 10:06:21;;;;;;;;;;;26.20;99.90;;;25.80;47.00;95946.06;10511860;28;2280;-80
2021/08/21 10:11:24;;;;;;;;;;;26.40;99.90;;;25.89;45.65;95945.81;10506122;28;1953;-80
2021/08/21 10:16:26;;;;;;;;;;;26.50;99.90;;;26.11;45.83;95936.75;10522422;28;2403;-80
2021/08/21 10:21:29;;;;;;;;;;;26.70;99.90;;;25.90;46.33;95943.88;10504522;28;1874;-81
2021/08/21 10:26:32;;;;;;;;;;;26.80;99.90;;;25.97;45.75;95938.50;10529402;28;2364;-82
2021/08/21 10:31:35;;;;;;;;;;;26.70;99.90;;;25.75;47.12;95932.59;10521873;28;2119;-79
2021/08/21 10:36:38;;;;;;;;;;;26.60;99.90;;;25.80;47.64;95926.00;10517518;28;2309;-82
2021/08/21 10:41:40;;;;;;;;;;;26.50;99.90;;;25.88;46.71;95928.50;10523451;28;2446;-82
2021/08/21 10:46:43;;;;;;;;;;;26.60;99.90;;;26.04;45.44;95930.34;10526989;28;2341;-79
2021/08/21 10:51:46;;;;;;;;;;;26.80;99.90;;;26.12;43.33;95926.50;10521711;28;2328;-78
2021/08/21 10:56:49;;;;;;;;;;;26.90;99.90;;;26.13;44.28;95928.09;10528813;28;2442;-78
2021/08/21 11:01:51;;;;;;;;;;;26.90;99.90;;;26.31;44.49;95929.16;10522208;28;2236;-82
2021/08/21 11:06:54;;;;;;;;;;;27.00;99.90;;;26.34;43.21;95928.44;10528025;28;2213;-78
2021/08/21 11:11:57;;;;;;;;;;;27.00;99.90;;;26.47;42.22;95931.00;10529874;28;2345;-83
2021/08/21 11:17:00;;;;;;;;;;;27.10;99.90;;;26.14;43.08;95918.66;10516762;28;2278;-79
2021/08/21 11:22:03;;;;;;;;;;;27.00;99.90;;;25.91;43.17;95915.16;10516675;28;2285;-81
2021/08/21 11:27:05;;;;;;;;;;;26.80;99.90;;;26.28;44.25;95918.91;10511752;28;2276;-79
2021/08/21 11:32:08;;;;;;;;;;;26.90;99.90;;;26.37;42.44;95910.34;10525951;28;2295;-79
2021/08/21 11:37:11;;;;;;;;;;;27.10;99.90;;;26.09;42.39;95911.53;10504501;28;2274;-80
2021/08/21 11:42:14;;;;;;;;;;;27.00;99.90;;;26.18;43.64;95902.19;10505669;28;2246;-79
2021/08/21 11:47:16;;;;;;;;;;;26.90;99.90;;;26.13;40.92;95900.56;10506945;28;2353;-78
2021/08/21 11:52:19;;;;;;;;;;;26.90;99.90;;;26.38;42.18;95911.94;10495011;28;2250;-79
2021/08/21 11:57:22;;;;;;;;;;;27.00;99.90;;;26.50;40.86;95910.94;10508858;28;2356;-81
2021/08/21 12:02:24;;;;;;;;;;;27.20;99.90;;;26.71;38.20;95905.72;10500651;28;2284;-80
2021/08/21 12:07:27;;;;;;;;;;;27.40;99.90;;;26.85;39.49;95900.41;10515144;28;2622;-80
2021/08/21 12:12:30;;;;;;;;;;;27.50;99.90;;;26.59;38.48;95900.44;10517586;28;2419;-78
2021/08/21 12:17:33;;;;;;;;;;;27.40;99.90;;;26.80;39.08;95895.22;10530095;28;2229;-80
2021/08/21 12:22:36;;;;;;;;;;;27.50;99.90;;;27.33;36.46;95889.50;10517692;28;2296;-81
2021/08/21 12:27:39;;;;;;;;;;;27.80;97.50;;;27.39;35.78;95878.91;10517054;28;2352;-81
2021/08/21 12:32:41;;;;;;;;;;;28.00;96.50;;;27.23;37.47;95881.13;10515515;28;2384;-81
2021/08/21 12:37:44;;;;;;;;;;;28.00;97.10;;;27.26;37.34;95875.63;10521221;28;2396;-83
2021/08/21 12:42:47;;;;;;;;;;;28.00;96.60;;;27.09;38.02;95882.56;10512222;28;2214;-79
2021/08/21 12:47:49;;;;;;;;;;;27.90;96.20;;;27.55;37.92;95875.91;10525436;28;2325;-81
2021/08/21 12:52:53;;;;;;;;;;;28.10;97.20;;;27.72;38.20;95867.81;10514773;28;2167;-81
2021/08/21 12:57:56;;;;;;;;;;;28.40;96.90;;;27.93;36.87;95867.19;10495452;28;2250;-81
2021/08/21 13:02:59;;;;;;;;;;;28.60;95.60;;;27.96;34.97;95860.88;10516723;28;2335;-81
2021/08/21 13:08:03;;;;;;;;;;;28.70;93.90;;;28.22;34.29;95853.56;10504147;28;2431;-80
2021/08/21 13:13:10;;;;;;;;;;;28.70;91.20;;;27.85;37.10;95848.16;10515259;28;2339;-81
2021/08/21 13:18:12;;;;;;;;;;;28.70;92.70;;;27.78;37.41;95848.13;10512345;28;2379;-80
2021/08/21 13:23:15;;;;;;;;;;;28.60;93.40;;;27.87;36.95;95843.88;10509557;28;2384;-79
2021/08/21 13:28:19;;;;;;;;;;;28.60;93.30;;;27.55;36.62;95846.34;10504121;28;2319;-79
2021/08/21 13:33:21;;;;;;;;;;;28.40;91.70;;;27.77;36.00;95832.72;10489844;28;2356;-79
2021/08/21 13:38:24;;;;;;;;;;;28.30;91.20;;;27.74;37.06;95831.53;10484316;28;2255;-79
2021/08/21 13:43:27;;;;;;;;;;;28.50;91.20;;;27.78;37.05;95828.78;10493529;28;2203;-79
2021/08/21 13:48:30;;;;;;;;;;;28.50;91.20;;;27.62;36.15;95824.31;10500264;28;2322;-78
2021/08/21 13:53:33;;;;;;;;;;;28.40;89.70;;;27.88;35.51;95830.84;10518926;28;2296;-79
2021/08/21 13:58:36;;;;;;;;;;;28.50;89.60;;;27.94;35.10;95841.16;10518872;28;2795;-81
2021/08/21 14:03:38;;;;;;;;;;;28.60;88.10;;;27.82;34.78;95821.34;10520650;28;2403;-79
2021/08/21 14:08:41;;;;;;;;;;;28.60;87.30;;;27.98;35.32;95819.06;10498957;28;2796;-81
2021/08/21 14:13:44;;;;;;;;;;;28.70;87.40;;;28.18;35.14;95817.59;10494889;28;2313;-82
2021/08/21 14:18:46;;;;;;;;;;;28.80;87.60;;;28.15;35.66;95812.84;10506023;28;2291;-81
2021/08/21 14:23:49;;;;;;;;;;;28.90;87.20;;;27.84;34.48;95819.75;10494755;28;2349;-80
2021/08/21 14:28:52;;;;;;;;;;;28.70;85.50;;;27.43;35.78;95808.78;10518989;28;2309;-78
2021/08/21 14:33:55;;;;;;;;;;;28.40;86.30;;;27.55;36.00;95813.22;10526207;28;2385;-80
2021/08/21 14:38:58;;;;;;;;;;;28.30;87.20;;;27.87;35.19;95799.66;10528159;28;2304;-83
2021/08/21 14:44:00;;;;;;;;;;;28.50;86.50;;;27.65;35.05;95806.19;10493352;28;2340;-81
2021/08/21 14:49:03;;;;;;;;;;;28.40;85.40;;;27.90;35.70;95806.38;10526856;28;2256;-82
2021/08/21 14:54:06;;;;;;;;;;;28.50;86.50;;;27.98;36.19;95813.53;10522896;28;2258;-80
2021/08/21 14:59:13;;;;;;;;;;;28.50;87.40;;;28.14;35.45;95805.75;10503741;28;2366;-81
2021/08/21 15:04:16;;;;;;;;;;;28.70;86.10;;;28.16;35.58;95813.63;10522332;28;2325;-83
2021/08/21 15:09:19;;;;;;;;;;;28.80;85.90;;;28.02;35.44;95804.09;10517392;28;2403;-81
2021/08/21 15:14:21;;;;;;;;;;;28.80;85.30;;;28.04;36.28;95800.16;10518955;28;1703;-78
2021/08/21 15:19:24;;;;;;;;;;;28.70;86.20;;;28.24;36.53;95798.69;10513373;28;2379;-79
2021/08/21 15:24:32;;;;;;;;;;;28.80;86.80;;;27.90;36.21;95798.88;10518885;28;2324;-80
2021/08/21 15:29:35;;;;;;;;;;;28.70;85.70;;;27.91;35.83;95794.16;10512098;28;2313;-80
2021/08/21 15:34:38;;;;;;;;;;;28.60;85.30;;;27.93;36.53;95795.38;10495053;28;2339;-80
2021/08/21 15:39:41;;;;;;;;;;;28.60;86.20;;;27.67;35.91;95790.78;10515714;28;2245;-79
2021/08/21 15:44:44;;;;;;;;;;;28.40;85.20;;;27.56;36.63;95792.72;10506999;28;2373;-79
2021/08/21 15:49:47;;;;;;;;;;;28.30;85.90;;;27.28;37.45;95793.25;10499780;28;2257;-78
2021/08/21 15:54:50;;;;;;;;;;;28.20;86.10;;;27.12;37.79;95790.75;10493915;28;2678;-80
2021/08/21 15:59:53;;;;;;;;;;;28.00;86.90;;;26.94;38.76;95787.78;10514709;28;2299;-79
2021/08/21 16:04:56;;;;;;;;;;;27.80;87.10;;;26.88;38.58;95786.56;10524306;28;2723;-81
2021/08/21 16:09:58;;;;;;;;;;;27.80;87.40;;;26.60;39.04;95780.75;10513759;28;2133;-81
2021/08/21 16:15:01;;;;;;;;;;;27.60;87.50;;;26.46;39.32;95777.81;10519780;28;2273;-81
2021/08/21 16:20:04;;;;;;;;;;;27.40;87.80;;;26.56;40.01;95780.69;10511752;28;2487;-81
2021/08/21 16:25:06;;;;;;;;;;;27.30;88.60;;;26.31;40.05;95780.38;10497100;28;2378;-78
2021/08/21 16:30:09;;;;;;;;;;;27.20;88.90;;;26.19;41.96;95782.56;10508339;28;2352;-80
2021/08/21 16:35:12;;;;;;;;;;;27.00;90.50;;;26.02;41.38;95781.16;10509222;28;2606;-78
2021/08/21 16:40:15;;;;;;;;;;;26.90;89.80;;;25.98;41.53;95783.09;10513789;28;2360;-80
2021/08/21 16:45:17;;;;;;;;;;;26.80;90.30;;;25.90;41.54;95773.94;10507139;28;2474;-82
2021/08/21 16:50:22;;;;;;;;;;;26.70;90.30;;;25.91;41.55;95771.97;10512913;28;2258;-80
2021/08/21 16:55:25;;;;;;;;;;;26.70;90.60;;;25.82;41.72;95774.97;10514412;28;2173;-80
2021/08/21 17:00:27;;;;;;;;;;;26.60;90.60;;;25.61;42.96;95772.69;10515330;28;2304;-80
2021/08/21 17:05:30;;;;;;;;;;;26.60;91.50;;;25.58;42.81;95774.22;10518472;28;2752;-82
2021/08/21 17:10:33;;;;;;;;;;;26.50;91.60;;;25.43;42.73;95766.91;10502449;28;2289;-81
2021/08/21 17:15:36;;;;;;;;;;;26.40;91.50;;;25.25;43.56;95768.56;10540238;28;2290;-80
2021/08/21 17:20:39;;;;;;;;;;;26.20;92.00;;;25.12;45.14;95765.22;10528221;28;2325;-79
2021/08/21 17:25:41;;;;;;;;;;;26.00;93.90;;;25.05;46.93;95765.09;10526256;28;2340;-80
2021/08/21 17:30:44;;;;;;;;;;;26.00;95.90;;;24.78;48.23;95762.25;10514663;28;2781;-82
2021/08/21 17:35:47;;;;;;;;;;;25.80;97.20;;;24.56;49.20;95760.28;10524709;28;1957;-80
2021/08/21 17:40:50;;;;;;;;;;;25.60;98.40;;;24.33;50.58;95757.44;10513072;28;2222;-81
2021/08/21 17:45:52;;;;;;;;;;;25.30;99.80;;;24.14;52.61;95768.44;10494740;28;2768;-77
2021/08/21 17:50:55;;;;;;;;;;;25.10;99.90;;;23.84;54.23;95773.66;10519651;28;2205;-79
2021/08/21 17:55:58;;;;;;;;;;;24.90;99.90;;;23.60;55.49;95775.50;10520649;28;2370;-79
2021/08/21 18:01:01;;;;;;;;;;;24.70;99.90;;;23.44;56.85;95777.44;10512410;28;2360;-79
2021/08/21 18:06:04;;;;;;;;;;;24.50;99.90;;;23.24;58.12;95778.53;10507620;28;2269;-79
2021/08/21 18:11:07;;;;;;;;;;;24.30;99.90;;;23.04;59.06;95778.44;10518553;28;2352;-78
2021/08/21 18:16:09;;;;;;;;;;;24.10;99.90;;;22.79;60.01;95785.22;10513840;28;2197;-80
2021/08/21 18:21:12;;;;;;;;;;;23.90;99.90;;;22.62;61.38;95794.53;10496362;28;2266;-79
2021/08/21 18:26:16;;;;;;;;;;;23.70;99.90;;;22.42;62.17;95798.28;10508275;28;2285;-80
2021/08/21 18:31:19;;;;;;;;;;;23.50;99.90;;;22.32;62.06;95799.56;10508850;28;2157;-81
2021/08/21 18:36:23;;;;;;;;;;;23.40;99.90;;;22.18;62.72;95801.91;10494830;28;2304;-83
2021/08/21 18:41:25;;;;;;;;;;;23.30;99.90;;;22.08;62.78;95798.50;10524713;28;2333;-82
2021/08/21 18:46:28;;;;;;;;;;;23.10;99.90;;;21.93;63.52;95803.88;10515774;28;2303;-79
2021/08/21 18:51:31;;;;;;;;;;;23.00;99.90;;;21.85;63.90;95808.34;10518339;28;2362;-80
2021/08/21 18:56:34;;;;;;;;;;;22.90;99.90;;;21.68;64.61;95803.91;10524115;28;2704;-80
2021/08/21 19:01:36;;;;;;;;;;;22.70;99.90;;;21.56;65.08;95810.19;10501986;28;2236;-81
2021/08/21 19:06:39;;;;;;;;;;;22.60;99.90;;;21.45;65.65;95811.81;10504435;28;2351;-79
2021/08/21 19:11:42;;;;;;;;;;;22.50;99.90;;;21.34;66.53;95824.34;10498273;28;2157;-80
2021/08/21 19:16:45;;;;;;;;;;;22.40;99.90;;;21.29;66.38;95814.41;10499657;28;2292;-79
2021/08/21 19:21:47;;;;;;;;;;;22.30;99.90;;;21.18;67.46;95818.69;10511548;28;2202;-81
2021/08/21 19:26:51;;;;;;;;;;;22.20;99.90;;;21.04;67.88;95818.22;10524110;28;2328;-81
2021/08/21 19:31:54;;;;;;;;;;;22.10;99.90;;;20.97;68.95;95815.25;10519002;28;2304;-81
2021/08/21 19:36:57;;;;;;;;;;;22.10;99.90;;;20.93;69.45;95817.06;10508974;28;2166;-81
2021/08/21 19:42:00;;;;;;;;;;;22.00;99.90;;;20.87;69.81;95818.44;10502527;28;2270;-81
2021/08/21 19:47:02;;;;;;;;;;;21.90;99.90;;;20.78;70.53;95815.78;10519293;28;2130;-79
2021/08/21 19:52:05;;;;;;;;;;;21.80;99.90;;;20.66;71.54;95807.56;10519938;28;2523;-80
2021/08/21 19:57:08;;;;;;;;;;;21.70;99.90;;;20.42;72.27;95814.53;10509820;28;2256;-80
2021/08/21 20:02:11;;;;;;;;;;;21.60;99.90;;;20.31;73.16;95818.00;10524173;28;2205;-80
2021/08/21 20:07:14;;;;;;;;;;;21.40;99.90;;;20.19;73.85;95816.00;10516024;28;2345;-81
2021/08/21 20:12:16;;;;;;;;;;;21.30;99.90;;;20.18;74.23;95823.38;10500334;28;2312;-81
2021/08/21 20:17:19;;;;;;;;;;;21.30;99.90;;;20.18;74.91;95820.66;10503049;28;2327;-81
2021/08/21 20:22:22;;;;;;;;;;;21.20;99.90;;;20.17;76.05;95816.34;10496852;28;2262;-79
2021/08/21 20:27:25;;;;;;;;;;;21.20;99.90;;;20.08;76.75;95814.81;10489566;28;2287;-80
2021/08/21 20:32:27;;;;;;;;;;;21.10;99.90;;;20.10;77.32;95820.72;10514435;28;2333;-82
2021/08/21 20:37:30;;;;;;;;;;;21.10;99.90;;;20.03;77.51;95817.72;10519397;28;2280;-81
2021/08/21 20:42:33;;;;;;;;;;;21.00;99.90;;;20.17;77.67;95818.28;10495511;28;2302;-79
2021/08/21 20:47:35;;;;;;;;;;;21.10;99.90;;;20.09;78.21;95817.19;10495975;28;2339;-80
2021/08/21 20:52:38;;;;;;;;;;;21.10;99.90;;;20.07;78.21;95807.75;10513662;28;2255;-79
2021/08/21 20:57:41;;;;;;;;;;;21.10;99.90;;;20.00;79.18;95804.75;10513399;28;2474;-79
2021/08/21 21:02:44;;;;;;;;;;;21.00;99.90;;;19.88;79.68;95806.28;10514235;28;2414;-79
2021/08/21 21:07:46;;;;;;;;;;;20.90;99.90;;;19.77;81.01;95807.78;10502872;28;2817;-81
2021/08/21 21:12:49;;;;;;;;;;;20.90;99.90;;;19.65;81.88;95802.25;10501056;28;2424;-76
2021/08/21 21:17:55;;;;;;;;;;;20.80;99.90;;;19.58;82.05;95802.00;10502789;28;2348;-79
2021/08/21 21:22:57;;;;;;;;;;;20.70;99.90;;;19.57;82.15;95798.44;10511764;28;2247;-81
2021/08/21 21:28:00;;;;;;;;;;;20.60;99.90;;;19.47;82.77;95793.38;10519307;28;2399;-80
2021/08/21 21:33:03;;;;;;;;;;;20.60;99.90;;;19.38;84.00;95787.97;10517796;28;2278;-81
2021/08/21 21:38:05;;;;;;;;;;;20.40;99.90;;;19.32;82.30;95778.38;10508770;28;2313;-79
2021/08/21 21:43:08;;;;;;;;;;;20.40;99.90;;;19.24;83.42;95779.22;10499606;28;2260;-83
2021/08/21 21:48:11;;;;;;;;;;;20.30;99.90;;;19.35;84.47;95782.38;10528658;28;2115;-81
2021/08/21 21:53:14;;;;;;;;;;;20.30;99.90;;;19.35;84.31;95777.72;10516609;28;2353;-82
2021/08/21 21:58:17;;;;;;;;;;;20.30;99.90;;;19.37;83.92;95778.19;10523058;28;2312;-83
2021/08/21 22:03:20;;;;;;;;;;;20.40;99.90;;;19.43;83.77;95784.25;10502722;28;2352;-82
2021/08/21 22:08:23;;;;;;;;;;;20.40;99.90;;;19.31;84.23;95787.69;10523205;28;2241;-80
2021/08/21 22:13:26;;;;;;;;;;;20.30;99.90;;;19.20;84.84;95786.44;10522308;28;2356;-82
2021/08/21 22:18:29;;;;;;;;;;;20.30;99.90;;;19.04;85.70;95790.88;10521594;28;2288;-81
2021/08/21 22:23:31;;;;;;;;;;;20.10;99.90;;;18.89;87.21;95789.47;10511743;28;2230;-82
2021/08/21 22:28:50;;;;;;;;;;;20.00;99.90;;;18.80;88.32;95775.09;10516285;28;2477;-81
2021/08/21 22:33:56;;;;;;;;;;;19.90;99.90;;;18.64;88.98;95772.06;10496542;28;2340;-80
2021/08/21 22:38:59;;;;;;;;;;;19.80;99.90;;;18.52;89.74;95766.50;10511141;28;2325;-82
2021/08/21 22:44:02;;;;;;;;;;;19.70;99.90;;;18.52;89.87;95774.66;10522628;28;1858;-83
2021/08/21 22:49:06;;;;;;;;;;;19.60;99.90;;;18.45;90.25;95771.63;10503803;28;2327;-82
2021/08/21 22:54:08;;;;;;;;;;;19.60;99.90;;;18.37;91.26;95770.53;10539056;28;2288;-83
2021/08/21 22:59:11;;;;;;;;;;;19.50;99.90;;;18.42;91.44;95767.63;10534257;28;2375;-81
2021/08/21 23:04:15;;;;;;;;;;;19.40;99.90;;;18.35;92.01;95767.31;10535624;28;2394;-82
2021/08/21 23:09:18;;;;;;;;;;;19.40;99.90;;;18.26;92.07;95764.63;10535787;28;2210;-82